Time;durP1;ratioP1;P1;durP2;ratioP2;P2;SDS_P1;SDS_P2;PMS_P1;PMS_P2;Temp;Humidity;BMP_temperature;BMP_pressure;BME280_temperature;BME280_humidity;BME280_pressure;Samples;Min_cycle;Max_cycle;Signal;HPM_P1;HPM_P2
2022/01/31 00:01:16;;;;;;;19.48;5.07;;;4.70;99.90;;;;;;5063825;28;20044;-74
2022/01/31 00:03:42;;;;;;;15.55;4.18;;;4.30;99.90;;;;;;5088185;28;20039;-74
2022/01/31 00:06:07;;;;;;;9.63;3.90;;;4.80;99.90;;;;;;5062742;28;20564;-74
2022/01/31 00:08:33;;;;;;;16.83;4.85;;;4.90;99.90;;;;;;5070911;28;20089;-74
2022/01/31 00:10:59;;;;;;;13.50;4.07;;;4.30;99.90;;;;;;5066580;28;20049;-74
2022/01/31 00:13:40;;;;;;;12.07;4.82;;;4.90;99.90;;;;;;5034986;28;20036;-74
2022/01/31 00:16:09;;;;;;;12.90;3.92;;;4.40;99.90;;;;;;5055010;28;20207;-74
2022/01/31 00:18:35;;;;;;;18.35;4.38;;;4.90;99.90;;;;;;5082340;28;20038;-74
2022/01/31 00:21:01;;;;;;;12.85;4.28;;;4.90;99.90;;;;;;5044567;28;20415;-74
2022/01/31 00:23:27;;;;;;;9.77;3.42;;;4.60;99.90;;;;;;5040404;28;20139;-74
2022/01/31 00:25:52;;;;;;;15.65;3.80;;;4.30;99.90;;;;;;5057223;28;20462;-74
2022/01/31 00:28:18;;;;;;;21.40;4.80;;;4.50;99.90;;;;;;5054660;28;20036;-74
2022/01/31 00:30:46;;;;;;;15.00;4.85;;;5.00;99.90;;;;;;5045444;28;20075;-74
2022/01/31 00:33:13;;;;;;;9.68;2.67;;;4.80;99.90;;;;;;5091730;28;20039;-73
2022/01/31 00:35:39;;;;;;;12.90;4.05;;;4.40;99.90;;;;;;5080816;28;20072;-74
2022/01/31 00:38:05;;;;;;;15.90;3.88;;;4.80;99.90;;;;;;5084667;28;20067;-74
2022/01/31 00:40:30;;;;;;;15.18;3.83;;;4.90;99.90;;;;;;5088422;28;20670;-74
2022/01/31 00:42:56;;;;;;;11.38;4.03;;;5.00;99.90;;;;;;5077466;28;20678;-74
2022/01/31 00:45:26;;;;;;;14.38;4.28;;;4.40;99.90;;;;;;5067432;28;20139;-74
2022/01/31 00:48:01;;;;;;;24.05;5.10;;;5.10;99.90;;;;;;5057290;28;20036;-74
2022/01/31 00:50:39;;;;;;;17.10;4.72;;;5.00;99.90;;;;;;5076384;28;20043;-74
2022/01/31 00:53:06;;;;;;;9.73;4.07;;;4.80;99.90;;;;;;5062970;28;20039;-74
2022/01/31 00:55:31;;;;;;;15.88;4.15;;;4.90;99.90;;;;;;5074021;28;20349;-74
2022/01/31 00:57:57;;;;;;;13.20;4.47;;;4.50;99.90;;;;;;5081000;28;20052;-75
2022/01/31 01:00:23;;;;;;;14.85;4.80;;;4.50;99.90;;;;;;5061070;28;20047;-74
2022/01/31 01:02:51;;;;;;;17.50;5.68;;;5.10;99.90;;;;;;5072204;28;20104;-73
2022/01/31 01:05:17;;;;;;;16.10;5.57;;;4.50;99.90;;;;;;5054775;28;20031;-75
2022/01/31 01:07:46;;;;;;;16.90;5.65;;;5.20;99.90;;;;;;5078527;28;20040;-74
2022/01/31 01:10:17;;;;;;;22.42;5.55;;;4.60;99.90;;;;;;5054430;28;20042;-74
2022/01/31 01:12:44;;;;;;;17.73;7.20;;;5.20;99.90;;;;;;5049077;28;20048;-74
2022/01/31 01:15:10;;;;;;;15.38;6.20;;;4.60;99.90;;;;;;5067513;28;20071;-74
2022/01/31 01:17:36;;;;;;;18.02;5.88;;;5.30;99.90;;;;;;5065758;28;20057;-74
2022/01/31 01:20:04;;;;;;;18.00;6.65;;;4.80;99.90;;;;;;5079313;28;20127;-74
2022/01/31 01:22:30;;;;;;;19.58;7.03;;;4.70;99.90;;;;;;5055456;28;20448;-74
2022/01/31 01:24:55;;;;;;;16.45;5.95;;;5.10;99.90;;;;;;5052614;28;20047;-74
2022/01/31 01:27:23;;;;;;;21.85;6.35;;;4.70;99.90;;;;;;5067411;28;20486;-74
2022/01/31 01:29:48;;;;;;;21.27;6.60;;;5.90;99.90;;;;;;5065652;28;20537;-74
2022/01/31 01:32:14;;;;;;;21.80;6.70;;;4.80;99.90;;;;;;5092409;28;20035;-75
2022/01/31 01:34:40;;;;;;;21.55;7.35;;;4.90;99.90;;;;;;5084534;28;20050;-76
2022/01/31 01:37:06;;;;;;;24.35;8.68;;;4.90;99.90;;;;;;5085500;28;20110;-76
2022/01/31 01:39:32;;;;;;;19.40;8.13;;;5.80;99.90;;;;;;5078873;28;20043;-76
2022/01/31 01:41:58;;;;;;;20.00;8.93;;;5.10;99.90;;;;;;5072671;28;20028;-76
2022/01/31 01:44:45;;;;;;;22.15;7.85;;;6.30;99.90;;;;;;5054361;28;20127;-75
2022/01/31 01:47:11;;;;;;;20.73;8.32;;;4.90;99.90;;;;;;5065423;28;20064;-76
2022/01/31 01:49:37;;;;;;;24.92;8.98;;;6.10;99.90;;;;;;5075366;28;20245;-76
2022/01/31 01:52:03;;;;;;;27.60;9.88;;;5.00;99.90;;;;;;5064446;28;20057;-76
2022/01/31 01:54:29;;;;;;;21.98;9.55;;;6.10;99.90;;;;;;5050863;28;20476;-75
2022/01/31 01:56:58;;;;;;;31.80;11.52;;;5.10;99.90;;;;;;5073291;28;20428;-76
2022/01/31 01:59:24;;;;;;;19.90;10.25;;;6.20;99.90;;;;;;5072094;28;20052;-75
2022/01/31 02:01:49;;;;;;;22.95;9.55;;;6.40;99.90;;;;;;5043392;28;20040;-76
2022/01/31 02:04:15;;;;;;;28.35;12.73;;;5.10;99.90;;;;;;5066236;28;20411;-76
2022/01/31 02:06:41;;;;;;;24.27;12.68;;;5.80;99.90;;;;;;5071149;28;20053;-77
2022/01/31 02:09:06;;;;;;;21.73;11.98;;;6.80;99.90;;;;;;5054061;28;20036;-76
2022/01/31 02:11:32;;;;;;;27.73;11.80;;;5.40;99.90;;;;;;5076263;28;20484;-76
2022/01/31 02:13:58;;;;;;;24.25;12.27;;;6.30;99.90;;;;;;5049021;28;20135;-76
2022/01/31 02:16:23;;;;;;;21.95;11.55;;;6.80;99.90;;;;;;5075023;28;20059;-76
2022/01/31 02:18:52;;;;;;;25.48;14.38;;;7.00;99.90;;;;;;5035939;28;20035;-75
2022/01/31 02:21:18;;;;;;;22.92;12.40;;;5.50;99.90;;;;;;5083288;28;20035;-75
2022/01/31 02:23:44;;;;;;;23.73;11.38;;;6.10;99.90;;;;;;5070859;28;20373;-75
2022/01/31 02:26:10;;;;;;;24.83;14.43;;;5.80;99.90;;;;;;5052743;28;20054;-76
2022/01/31 02:28:38;;;;;;;20.00;12.10;;;5.20;99.90;;;;;;5055702;28;20044;-76
2022/01/31 02:31:05;;;;;;;22.85;13.55;;;5.50;99.90;;;;;;5074296;28;20415;-76
2022/01/31 02:33:31;;;;;;;15.90;9.73;;;6.60;99.90;;;;;;5070576;28;20093;-76
2022/01/31 02:36:03;;;;;;;18.92;12.00;;;6.50;99.90;;;;;;5057438;28;20038;-76
2022/01/31 02:38:30;;;;;;;18.40;10.43;;;5.50;99.90;;;;;;5089005;28;20563;-76
2022/01/31 02:40:56;;;;;;;16.55;11.15;;;6.40;99.90;;;;;;5058274;28;20380;-75
2022/01/31 02:43:27;;;;;;;18.88;11.57;;;5.30;99.90;;;;;;5056164;28;20051;-75
2022/01/31 02:45:53;;;;;;;19.30;12.50;;;5.20;99.90;;;;;;5056063;28;20122;-75
2022/01/31 02:48:19;;;;;;;18.73;12.60;;;6.40;99.90;;;;;;5065137;28;20048;-75
2022/01/31 02:50:46;;;;;;;21.77;13.02;;;5.20;99.90;;;;;;5061046;28;20088;-76
2022/01/31 02:53:14;;;;;;;19.27;10.55;;;6.80;99.90;;;;;;5074097;28;20048;-75
2022/01/31 02:55:42;;;;;;;22.70;13.75;;;5.20;99.90;;;;;;5051986;28;20044;-75
2022/01/31 02:58:09;;;;;;;19.52;11.95;;;7.20;99.90;;;;;;5071071;28;20411;-75
2022/01/31 03:00:36;;;;;;;27.95;12.80;;;7.10;99.90;;;;;;5079722;28;20043;-75
2022/01/31 03:03:02;;;;;;;20.83;12.85;;;7.30;99.90;;;;;;5075181;28;20036;-75
2022/01/31 03:05:28;;;;;;;19.42;11.10;;;7.20;99.90;;;;;;5065389;28;20038;-75
2022/01/31 03:07:53;;;;;;;17.60;11.05;;;6.90;99.90;;;;;;5058967;28;20035;-75
2022/01/31 03:10:19;;;;;;;18.60;11.32;;;7.70;99.90;;;;;;5048430;28;20039;-75
2022/01/31 03:12:45;;;;;;;21.88;11.77;;;5.90;99.90;;;;;;5043282;28;20040;-74
2022/01/31 03:15:11;;;;;;;21.50;11.75;;;8.30;99.90;;;;;;5060844;28;20027;-75
2022/01/31 03:17:38;;;;;;;19.38;12.25;;;8.30;99.90;;;;;;5083762;28;20028;-75
2022/01/31 03:20:05;;;;;;;17.27;10.65;;;6.70;99.90;;;;;;5055240;28;20035;-76
2022/01/31 03:22:31;;;;;;;20.42;11.93;;;8.00;99.90;;;;;;5073797;28;20054;-75
2022/01/31 03:24:56;;;;;;;21.13;10.38;;;7.10;99.90;;;;;;5085790;28;20048;-75
2022/01/31 03:27:23;;;;;;;18.15;10.18;;;6.80;99.90;;;;;;5033978;28;20119;-74
2022/01/31 03:29:48;;;;;;;18.45;10.20;;;7.60;99.90;;;;;;5051608;28;20036;-74
2022/01/31 03:32:14;;;;;;;18.65;10.52;;;7.10;99.90;;;;;;5061998;28;20039;-75
2022/01/31 03:34:40;;;;;;;15.43;8.50;;;6.70;99.90;;;;;;5080321;28;20082;-75
2022/01/31 03:37:05;;;;;;;18.83;10.48;;;8.80;99.90;;;;;;5059613;28;20081;-76
2022/01/31 03:39:31;;;;;;;19.20;10.40;;;7.30;99.90;;;;;;5071789;28;20036;-76
2022/01/31 03:41:57;;;;;;;17.65;10.50;;;7.30;99.90;;;;;;5043878;28;20472;-74
2022/01/31 03:44:22;;;;;;;16.55;9.82;;;7.10;99.90;;;;;;5079856;28;20122;-74
2022/01/31 03:46:48;;;;;;;17.20;9.43;;;7.00;99.90;;;;;;5069823;28;20491;-76
2022/01/31 03:49:14;;;;;;;19.70;8.68;;;8.80;99.90;;;;;;5041682;28;20134;-74
2022/01/31 03:51:39;;;;;;;17.73;10.35;;;8.60;99.90;;;;;;5069253;28;20122;-74
2022/01/31 03:54:05;;;;;;;15.18;8.30;;;7.30;99.90;;;;;;5091501;28;20078;-75
2022/01/31 03:56:31;;;;;;;14.20;7.72;;;7.20;99.90;;;;;;5091007;28;20043;-75
2022/01/31 03:58:57;;;;;;;15.70;7.47;;;8.00;99.90;;;;;;5086585;28;20064;-76
2022/01/31 04:01:23;;;;;;;18.38;7.82;;;9.30;99.90;;;;;;5057242;28;20064;-73
2022/01/31 04:03:49;;;;;;;12.30;6.03;;;8.80;99.90;;;;;;5070214;28;20484;-74
2022/01/31 04:06:15;;;;;;;14.45;6.28;;;7.90;99.90;;;;;;5085479;28;20183;-75
2022/01/31 04:08:41;;;;;;;14.32;5.25;;;9.00;99.90;;;;;;5081129;28;20126;-74
2022/01/31 04:11:07;;;;;;;19.75;7.45;;;8.00;99.90;;;;;;5080355;28;20122;-75
2022/01/31 04:13:33;;;;;;;15.27;3.78;;;9.50;99.90;;;;;;5074630;28;20048;-74
2022/01/31 04:15:58;;;;;;;11.10;3.20;;;10.00;99.90;;;;;;5065591;28;20463;-74
2022/01/31 04:18:24;;;;;;;13.80;2.67;;;8.80;99.90;;;;;;5068865;28;20058;-76
2022/01/31 04:20:51;;;;;;;13.57;2.35;;;8.30;99.90;;;;;;5070508;28;20039;-75
2022/01/31 04:23:19;;;;;;;10.32;3.22;;;10.10;99.90;;;;;;5084309;28;20047;-74
2022/01/31 04:28:21;;;;;;;17.23;3.08;;;8.60;99.90;;;;;;5062842;28;20118;-75
2022/01/31 04:30:55;;;;;;;15.95;3.45;;;8.80;99.90;;;;;;5088763;28;20043;-74
2022/01/31 04:33:22;;;;;;;9.77;2.70;;;9.10;99.90;;;;;;5072864;28;20528;-75
2022/01/31 04:35:48;;;;;;;12.35;1.95;;;8.00;99.90;;;;;;5080325;28;20112;-76
2022/01/31 04:38:14;;;;;;;7.43;1.83;;;8.40;99.90;;;;;;5084622;28;20044;-75
2022/01/31 04:40:40;;;;;;;12.55;2.22;;;9.60;99.90;;;;;;5074025;28;20430;-76
2022/01/31 04:43:05;;;;;;;9.23;2.08;;;8.60;99.90;;;;;;5073137;28;20043;-74
2022/01/31 04:45:31;;;;;;;11.05;2.42;;;7.50;99.90;;;;;;5072770;28;20031;-74
2022/01/31 04:47:57;;;;;;;8.10;2.08;;;7.50;99.90;;;;;;5056460;28;20040;-74
2022/01/31 04:50:23;;;;;;;9.32;1.92;;;8.30;99.90;;;;;;5070149;28;20040;-75
2022/01/31 04:52:48;;;;;;;15.98;2.85;;;9.30;99.90;;;;;;5044571;28;20101;-75
2022/01/31 04:55:14;;;;;;;9.73;2.22;;;7.50;99.90;;;;;;5056991;28;20039;-74
2022/01/31 04:57:41;;;;;;;16.27;3.13;;;7.70;99.90;;;;;;5057881;28;20574;-75
2022/01/31 05:00:09;;;;;;;11.90;2.22;;;9.50;99.90;;;;;;5064508;28;20206;-75
2022/01/31 05:02:36;;;;;;;8.13;2.05;;;8.50;99.90;;;;;;5056364;28;20036;-74
2022/01/31 05:05:03;;;;;;;17.33;2.35;;;9.90;99.90;;;;;;5072140;28;20105;-74
2022/01/31 05:07:29;;;;;;;12.50;2.10;;;8.70;99.90;;;;;;5063335;28;20058;-76
2022/01/31 05:09:54;;;;;;;14.38;2.28;;;7.80;99.90;;;;;;5080659;28;20442;-74
2022/01/31 05:12:20;;;;;;;20.90;2.35;;;9.10;99.90;;;;;;5082839;28;20077;-73
2022/01/31 05:14:46;;;;;;;12.98;2.35;;;7.70;99.90;;;;;;5048663;28;20174;-72
2022/01/31 05:17:12;;;;;;;18.10;3.72;;;9.80;99.90;;;;;;5047785;28;20036;-75
2022/01/31 05:19:37;;;;;;;15.50;3.70;;;7.30;99.90;;;;;;5053422;28;20044;-72
2022/01/31 05:22:03;;;;;;;11.68;2.30;;;9.70;99.90;;;;;;5075897;28;20445;-74
2022/01/31 05:24:30;;;;;;;6.75;1.50;;;7.50;99.90;;;;;;5040538;28;20491;-74
2022/01/31 05:26:56;;;;;;;8.88;2.33;;;8.50;99.90;;;;;;5080180;28;20043;-74
2022/01/31 05:29:22;;;;;;;4.68;1.40;;;8.30;99.90;;;;;;5088946;28;20039;-74
2022/01/31 05:31:48;;;;;;;8.45;1.55;;;6.80;99.90;;;;;;5074679;28;20131;-75
2022/01/31 05:34:15;;;;;;;10.07;2.20;;;7.30;99.90;;;;;;5077350;28;20036;-75
2022/01/31 05:36:42;;;;;;;7.75;1.20;;;8.60;99.90;;;;;;5059646;28;20036;-74
2022/01/31 05:39:07;;;;;;;5.75;1.60;;;8.40;99.90;;;;;;5065938;28;20437;-73
2022/01/31 05:41:33;;;;;;;6.20;1.20;;;8.70;99.90;;;;;;5069005;28;20127;-76
2022/01/31 05:43:59;;;;;;;6.43;1.30;;;6.90;99.90;;;;;;5076674;28;20036;-73
2022/01/31 05:46:25;;;;;;;5.15;1.30;;;6.60;99.90;;;;;;5057812;28;20373;-74
2022/01/31 05:48:52;;;;;;;6.57;1.33;;;8.90;99.90;;;;;;5056079;28;20092;-74
2022/01/31 05:51:20;;;;;;;7.70;1.65;;;8.80;99.90;;;;;;5084842;28;20048;-74
2022/01/31 05:53:48;;;;;;;3.70;1.42;;;9.00;99.90;;;;;;5059821;28;20071;-75
2022/01/31 05:56:15;;;;;;;9.43;2.00;;;7.80;99.90;;;;;;5088324;28;20043;-75
2022/01/31 05:58:45;;;;;;;8.27;1.75;;;8.10;99.90;;;;;;5086176;28;20056;-75
2022/01/31 06:01:11;;;;;;;11.57;1.63;;;7.00;99.90;;;;;;5025258;28;20032;-74
2022/01/31 06:03:40;;;;;;;14.60;1.67;;;8.50;99.90;;;;;;5044387;28;20044;-74
2022/01/31 06:06:05;;;;;;;6.32;1.88;;;6.50;99.90;;;;;;5063928;28;20048;-75
2022/01/31 06:08:31;;;;;;;10.52;2.33;;;9.20;99.90;;;;;;5066269;28;20671;-74
2022/01/31 06:10:57;;;;;;;12.30;2.35;;;6.90;99.90;;;;;;5073851;28;20059;-74
2022/01/31 06:13:25;;;;;;;7.60;2.35;;;8.30;99.90;;;;;;5076839;28;20127;-74
2022/01/31 06:15:51;;;;;;;6.40;1.80;;;6.90;99.90;;;;;;5057512;28;20043;-74
2022/01/31 06:18:18;;;;;;;10.95;1.70;;;8.00;99.90;;;;;;5057700;28;20040;-71
2022/01/31 06:20:44;;;;;;;10.60;2.58;;;9.30;99.90;;;;;;5068184;28;20127;-75
2022/01/31 06:23:11;;;;;;;9.93;1.90;;;8.70;99.90;;;;;;5072558;28;20115;-74
2022/01/31 06:25:37;;;;;;;7.05;1.70;;;9.00;99.90;;;;;;5079168;28;20039;-75
2022/01/31 06:28:07;;;;;;;9.30;1.52;;;8.00;99.90;;;;;;5058994;28;20105;-74
2022/01/31 06:30:34;;;;;;;12.55;2.58;;;8.60;99.90;;;;;;5073282;28;20123;-73
2022/01/31 06:33:00;;;;;;;6.15;1.30;;;9.20;99.90;;;;;;5059477;28;20032;-74
2022/01/31 06:35:26;;;;;;;13.75;1.75;;;8.70;99.90;;;;;;5061647;28;20028;-75
2022/01/31 06:37:52;;;;;;;13.68;2.80;;;8.90;99.90;;;;;;5092158;28;20081;-75
2022/01/31 06:40:19;;;;;;;6.65;1.33;;;9.50;99.90;;;;;;5077835;28;20040;-75
2022/01/31 06:42:45;;;;;;;5.63;1.42;;;7.80;99.90;;;;;;5083528;28;20044;-73
2022/01/31 06:45:11;;;;;;;16.83;1.80;;;9.20;99.90;;;;;;5071807;28;20103;-74
2022/01/31 06:47:37;;;;;;;5.43;1.63;;;8.70;99.90;;;;;;5082631;28;20043;-74
2022/01/31 06:50:06;;;;;;;9.73;1.40;;;9.00;99.90;;;;;;5079696;28;20131;-76
2022/01/31 06:52:35;;;;;;;7.63;1.48;;;7.00;99.90;;;;;;5073695;28;20058;-75
2022/01/31 06:55:04;;;;;;;11.90;2.17;;;9.50;99.90;;;;;;5068770;28;20063;-73
2022/01/31 06:57:33;;;;;;;11.00;1.70;;;7.00;99.90;;;;;;5072343;28;20059;-72
2022/01/31 07:00:00;;;;;;;8.90;1.52;;;7.80;99.90;;;;;;5054623;28;20036;-73
2022/01/31 07:02:27;;;;;;;12.05;2.17;;;7.30;99.90;;;;;;5055807;28;20035;-73
2022/01/31 07:04:53;;;;;;;7.53;1.95;;;7.40;99.90;;;;;;5083104;28;20051;-76
2022/01/31 07:07:18;;;;;;;8.90;1.75;;;9.30;99.90;;;;;;5098607;28;20043;-73
2022/01/31 07:09:44;;;;;;;8.20;1.85;;;8.30;99.90;;;;;;5070411;28;20032;-75
2022/01/31 07:12:12;;;;;;;12.45;2.00;;;9.80;99.90;;;;;;5073197;28;20036;-74
2022/01/31 07:14:38;;;;;;;9.13;1.67;;;10.10;99.90;;;;;;5050686;28;20369;-75
2022/01/31 07:17:05;;;;;;;13.20;2.70;;;8.20;99.90;;;;;;5048005;28;20491;-74
2022/01/31 07:19:34;;;;;;;13.23;1.80;;;9.30;99.90;;;;;;5061229;28;20045;-75
2022/01/31 07:22:00;;;;;;;13.20;1.60;;;7.50;99.90;;;;;;5055266;28;20044;-74
2022/01/31 07:24:51;;;;;;;13.57;1.92;;;9.30;99.90;;;;;;5083453;28;20040;-74
2022/01/31 07:27:12;;;;;;;11.60;2.15;;;9.60;99.90;;;;;;5068793;28;20077;-76
2022/01/31 07:29:38;;;;;;;11.30;1.77;;;9.50;99.90;;;;;;5059899;28;20044;-76
2022/01/31 07:32:07;;;;;;;8.80;1.33;;;10.30;99.90;;;;;;5075457;28;20063;-74
2022/01/31 07:34:33;;;;;;;4.88;1.20;;;10.20;99.90;;;;;;5064451;28;20047;-75
2022/01/31 07:36:59;;;;;;;5.50;1.38;;;7.60;99.90;;;;;;5059754;28;20040;-75
2022/01/31 07:39:25;;;;;;;11.70;1.83;;;7.40;99.90;;;;;;5080683;28;20043;-75
2022/01/31 07:41:51;;;;;;;9.38;1.38;;;10.20;99.90;;;;;;5067561;28;20368;-74
2022/01/31 07:44:17;;;;;;;8.40;2.42;;;10.20;99.90;;;;;;5090455;28;20040;-74
2022/01/31 07:46:43;;;;;;;5.47;1.20;;;10.20;99.90;;;;;;5085855;28;20086;-74
2022/01/31 07:49:09;;;;;;;6.18;1.60;;;7.50;99.90;;;;;;5055268;28;20040;-75
2022/01/31 07:51:38;;;;;;;6.25;1.67;;;9.10;99.90;;;;;;5064411;28;20155;-77
2022/01/31 07:54:04;;;;;;;9.93;1.15;;;10.00;99.90;;;;;;5079375;28;20097;-75
2022/01/31 07:56:30;;;;;;;11.73;1.52;;;9.10;99.90;;;;;;5062463;28;20575;-75
2022/01/31 07:58:56;;;;;;;7.32;1.60;;;9.90;99.90;;;;;;5053060;28;20079;-72
2022/01/31 08:01:21;;;;;;;6.28;1.20;;;10.10;99.90;;;;;;5051842;28;20036;-74
2022/01/31 08:03:47;;;;;;;7.00;1.63;;;10.30;99.90;;;;;;5051849;28;20044;-73
2022/01/31 08:06:14;;;;;;;6.53;1.27;;;8.10;99.90;;;;;;5051453;28;20611;-75
2022/01/31 08:08:41;;;;;;;8.85;1.90;;;9.50;99.90;;;;;;5052411;28;20049;-75
2022/01/31 08:11:08;;;;;;;8.05;3.03;;;7.40;99.90;;;;;;5051529;28;20132;-75
2022/01/31 08:13:34;;;;;;;7.43;1.38;;;7.40;99.90;;;;;;5035440;28;20128;-76
2022/01/31 08:16:09;;;;;;;4.97;1.08;;;9.90;99.90;;;;;;5051840;28;20103;-74
2022/01/31 08:18:38;;;;;;;7.68;1.35;;;9.00;99.90;;;;;;5035251;28;20064;-75
2022/01/31 08:21:05;;;;;;;6.78;1.00;;;9.00;99.90;;;;;;5052477;28;20393;-76
2022/01/31 08:23:31;;;;;;;6.47;1.50;;;9.70;99.90;;;;;;5052116;28;20045;-73
2022/01/31 08:25:59;;;;;;;4.63;1.02;;;10.60;99.90;;;;;;5051863;28;20052;-74
2022/01/31 08:28:34;;;;;;;11.30;1.60;;;8.50;99.90;;;;;;5036049;28;20772;-74
2022/01/31 08:31:07;;;;;;;6.75;1.20;;;7.90;99.90;;;;;;5035054;28;20095;-74
2022/01/31 08:33:39;;;;;;;12.18;1.85;;;7.60;99.90;;;;;;5036133;28;20511;-74
2022/01/31 08:36:07;;;;;;;6.05;1.27;;;9.50;99.90;;;;;;5035082;28;20039;-75
2022/01/31 08:38:39;;;;;;;7.75;2.58;;;9.80;99.90;;;;;;5033794;28;20044;-75
2022/01/31 08:41:07;;;;;;;10.95;1.75;;;7.80;99.90;;;;;;5051637;28;20029;-75
2022/01/31 08:43:37;;;;;;;8.45;2.05;;;7.90;99.90;;;;;;5034583;28;20536;-74
2022/01/31 08:46:04;;;;;;;8.82;1.63;;;8.30;99.90;;;;;;5035133;28;20413;-75
2022/01/31 08:48:30;;;;;;;10.88;1.55;;;7.90;99.90;;;;;;5034641;28;20040;-73
2022/01/31 08:50:56;;;;;;;8.07;2.15;;;9.70;99.90;;;;;;5034554;28;20045;-73
2022/01/31 08:53:22;;;;;;;7.82;1.38;;;7.80;99.90;;;;;;5018156;28;20055;-73
2022/01/31 08:55:54;;;;;;;7.85;1.15;;;10.60;99.90;;;;;;5051211;28;20045;-75
2022/01/31 08:58:21;;;;;;;8.60;1.83;;;10.30;99.90;;;;;;5050407;28;20057;-76
2022/01/31 09:00:49;;;;;;;4.15;1.25;;;9.70;99.90;;;;;;5032204;28;20045;-74
2022/01/31 09:05:42;;;;;;;7.32;1.63;;;10.20;99.90;;;;;;5048231;28;20493;-72
2022/01/31 09:08:08;;;;;;;13.65;1.88;;;10.50;99.90;;;;;;5050642;28;20434;-72
2022/01/31 09:10:34;;;;;;;9.18;1.75;;;10.80;99.90;;;;;;5033407;28;20045;-72
2022/01/31 09:13:00;;;;;;;5.70;1.40;;;9.50;99.90;;;;;;5050992;28;20380;-72
2022/01/31 09:15:25;;;;;;;10.90;1.77;;;9.20;99.90;;;;;;5041761;28;20036;-72
2022/01/31 09:17:51;;;;;;;6.90;1.98;;;7.80;99.90;;;;;;5048912;28;20056;-72
2022/01/31 09:20:17;;;;;;;5.88;1.67;;;9.50;99.90;;;;;;5002870;28;20051;-71
2022/01/31 09:22:43;;;;;;;7.60;1.60;;;8.00;99.90;;;;;;5024399;28;20041;-74
2022/01/31 09:25:11;;;;;;;11.43;1.85;;;11.00;99.90;;;;;;5016553;28;20460;-72
2022/01/31 09:27:38;;;;;;;10.50;1.60;;;8.90;99.90;;;;;;5049762;28;20132;-72
2022/01/31 09:30:09;;;;;;;8.68;1.65;;;11.60;99.90;;;;;;5036089;28;20045;-72
2022/01/31 09:32:36;;;;;;;8.38;1.70;;;8.40;99.90;;;;;;5030267;28;20045;-71
2022/01/31 09:35:02;;;;;;;9.73;1.90;;;8.90;99.90;;;;;;5017036;28;20041;-73
2022/01/31 09:37:28;;;;;;;9.20;2.00;;;8.50;99.90;;;;;;5033242;28;20477;-72
2022/01/31 09:40:01;;;;;;;6.53;1.58;;;9.10;99.90;;;;;;5046978;28;20045;-73
2022/01/31 09:42:34;;;;;;;9.82;1.10;;;10.40;99.90;;;;;;5015251;28;20095;-71
2022/01/31 09:50:12;;;;;;;4.78;1.20;;;11.10;99.90;;;;;;5042575;28;20055;-72
2022/01/31 09:52:38;;;;;;;6.35;1.30;;;8.50;99.90;;;;;;5024266;28;20128;-72
2022/01/31 09:55:04;;;;;;;4.68;1.00;;;9.00;99.90;;;;;;5009854;28;20160;-73
2022/01/31 09:57:30;;;;;;;6.00;1.00;;;8.50;99.90;;;;;;5040202;28;20060;-71
2022/01/31 09:59:56;;;;;;;4.47;1.00;;;8.50;99.90;;;;;;5028930;28;20047;-72
2022/01/31 10:02:22;;;;;;;4.90;1.15;;;8.40;99.90;;;;;;5006654;28;20444;-71
2022/01/31 10:04:48;;;;;;;5.55;0.98;;;9.80;99.90;;;;;;5022642;28;20099;-72
2022/01/31 10:07:15;;;;;;;10.95;1.65;;;9.70;99.90;;;;;;5018583;28;20126;-73
2022/01/31 10:09:47;;;;;;;9.95;1.25;;;8.60;99.90;;;;;;5028270;28;20038;-71
2022/01/31 10:16:25;;;;;;;7.72;1.48;;;8.30;99.90;;;;;;5025334;28;20057;-72
2022/01/31 10:18:01;;;;;;;5.90;1.55;;;8.20;99.90;;;;;;5024714;28;20044;-73
2022/01/31 10:20:29;;;;;;;7.65;1.35;;;10.50;99.90;;;;;;5026852;28;20385;-72
2022/01/31 10:22:56;;;;;;;9.13;1.83;;;9.90;99.90;;;;;;5005686;28;20046;-72
2022/01/31 10:25:23;;;;;;;7.47;1.95;;;9.90;99.90;;;;;;5017259;28;20160;-72
2022/01/31 10:27:51;;;;;;;7.63;1.27;;;9.70;99.90;;;;;;5023352;28;20393;-72
2022/01/31 10:30:18;;;;;;;7.43;1.10;;;8.90;99.90;;;;;;5019885;28;20835;-72
2022/01/31 10:32:46;;;;;;;8.75;1.52;;;9.00;99.90;;;;;;5041918;28;20131;-72
2022/01/31 10:35:18;;;;;;;6.07;1.30;;;9.10;99.90;;;;;;5041431;28;20084;-72
2022/01/31 10:37:44;;;;;;;9.35;1.70;;;7.60;99.90;;;;;;5041714;28;20052;-71
2022/01/31 10:53:41;;;;;;;7.88;1.63;;;8.50;99.90;;;;;;5041728;28;20060;-73
2022/01/31 10:56:07;;;;;;;13.80;2.25;;;9.60;99.90;;;;;;5024867;28;20045;-71
2022/01/31 10:58:33;;;;;;;15.27;2.28;;;8.00;99.90;;;;;;5057669;28;20052;-71
2022/01/31 11:01:19;;;;;;;8.07;1.83;;;8.00;99.90;;;;;;5081556;28;20050;-72
2022/01/31 11:03:46;;;;;;;10.30;1.80;;;9.40;99.90;;;;;;5066227;28;20735;-72
2022/01/31 11:06:14;;;;;;;12.93;1.63;;;8.00;99.90;;;;;;5081693;28;20086;-72
2022/01/31 11:08:40;;;;;;;8.93;1.77;;;8.30;99.90;;;;;;5081761;28;20052;-72
2022/01/31 11:11:06;;;;;;;8.68;1.80;;;8.50;99.90;;;;;;5064225;28;20063;-75
2022/01/31 11:13:37;;;;;;;9.00;1.95;;;8.50;99.90;;;;;;5045104;28;20052;-73
2022/01/31 11:16:04;;;;;;;8.60;2.10;;;9.30;99.90;;;;;;5057755;28;20054;-71
2022/01/31 11:18:32;;;;;;;12.85;1.60;;;8.90;99.90;;;;;;5069118;28;20043;-71
2022/01/31 11:21:02;;;;;;;7.47;1.65;;;8.10;99.90;;;;;;5076301;28;20429;-69
2022/01/31 11:23:29;;;;;;;13.80;1.80;;;8.80;99.90;;;;;;5064541;28;20076;-70
2022/01/31 11:26:00;;;;;;;8.27;1.58;;;8.50;99.90;;;;;;5034614;28;20052;-70
2022/01/31 11:28:29;;;;;;;9.00;2.15;;;8.70;99.90;;;;;;5078127;28;20043;-71
2022/01/31 11:30:55;;;;;;;11.55;1.83;;;8.40;99.90;;;;;;5067239;28;20043;-71
2022/01/31 11:33:22;;;;;;;9.32;2.05;;;8.40;99.90;;;;;;5078778;28;20495;-72
2022/01/31 11:35:49;;;;;;;9.70;2.10;;;8.10;99.90;;;;;;5061002;28;20172;-72
2022/01/31 11:38:16;;;;;;;9.40;1.90;;;9.00;99.90;;;;;;5063880;28;20128;-72
2022/01/31 11:40:43;;;;;;;13.07;1.80;;;9.10;99.90;;;;;;5047839;28;20036;-71
2022/01/31 11:43:10;;;;;;;5.82;1.73;;;8.00;99.90;;;;;;5079826;28;20051;-73
2022/01/31 11:45:39;;;;;;;16.75;2.42;;;8.40;99.90;;;;;;5078899;28;20040;-70
2022/01/31 11:48:26;;;;;;;9.50;1.75;;;9.10;99.90;;;;;;5064044;28;20047;-72
2022/01/31 11:50:56;;;;;;;7.57;2.05;;;8.80;99.90;;;;;;5046308;28;20837;-70
2022/01/31 11:53:26;;;;;;;12.27;3.40;;;7.90;99.90;;;;;;5077951;28;20040;-71
2022/01/31 11:55:52;;;;;;;11.65;2.05;;;8.10;99.90;;;;;;5061454;28;20089;-71
2022/01/31 11:58:18;;;;;;;8.57;2.00;;;8.70;99.90;;;;;;5062460;28;20453;-71
2022/01/31 12:00:48;;;;;;;11.20;2.10;;;9.10;99.90;;;;;;5062953;28;20149;-71
2022/01/31 12:03:16;;;;;;;7.88;1.67;;;8.50;99.90;;;;;;5043991;28;20032;-72
2022/01/31 12:05:43;;;;;;;12.57;2.20;;;8.30;99.90;;;;;;5047411;28;20032;-71
2022/01/31 12:08:14;;;;;;;10.63;2.38;;;8.50;99.90;;;;;;5058967;28;20101;-72
2022/01/31 12:10:47;;;;;;;13.38;2.00;;;8.30;99.90;;;;;;5062959;28;20040;-72
2022/01/31 12:13:41;;;;;;;8.15;1.95;;;8.20;99.90;;;;;;5031896;28;20438;-72
2022/01/31 12:16:34;;;;;;;14.57;2.25;;;9.00;99.90;;;;;;5032187;28;20431;-72
2022/01/31 12:19:30;;;;;;;17.02;2.42;;;8.20;99.90;;;;;;5083919;28;20121;-72
2022/01/31 12:22:05;;;;;;;17.65;2.88;;;8.70;99.90;;;;;;5048286;28;20113;-72
2022/01/31 12:24:39;;;;;;;15.00;2.33;;;9.30;99.90;;;;;;5049095;28;20047;-72
2022/01/31 12:27:06;;;;;;;12.18;1.73;;;8.30;99.90;;;;;;5051616;28;20036;-72
2022/01/31 12:29:35;;;;;;;18.70;2.50;;;8.80;99.90;;;;;;5043165;28;20055;-71
2022/01/31 12:32:16;;;;;;;21.73;3.60;;;8.90;99.90;;;;;;5051099;28;20050;-72
2022/01/31 12:35:06;;;;;;;10.82;2.30;;;9.20;99.90;;;;;;5071417;28;20036;-71
2022/01/31 12:37:36;;;;;;;15.18;3.03;;;9.50;99.90;;;;;;5064616;28;20044;-72
2022/01/31 12:40:19;;;;;;;12.75;2.28;;;8.90;99.90;;;;;;5030790;28;20047;-71
2022/01/31 12:43:23;;;;;;;10.75;1.77;;;8.30;99.90;;;;;;5099243;28;20078;-72
2022/01/31 12:45:48;;;;;;;13.52;2.35;;;9.50;99.90;;;;;;5034353;28;20087;-72
2022/01/31 12:48:18;;;;;;;12.25;1.92;;;8.70;99.90;;;;;;5057052;28;20087;-72
2022/01/31 12:50:43;;;;;;;9.82;2.00;;;9.30;99.90;;;;;;5066291;28;20120;-72
2022/01/31 12:53:27;;;;;;;11.43;2.95;;;9.40;99.90;;;;;;5083812;28;20051;-72
2022/01/31 12:56:35;;;;;;;11.70;2.72;;;9.20;99.90;;;;;;5051816;28;20032;-72
2022/01/31 12:59:13;;;;;;;14.50;3.25;;;8.70;99.90;;;;;;5043064;28;20064;-72
2022/01/31 13:01:44;;;;;;;15.23;2.28;;;8.50;99.90;;;;;;5045707;28;20051;-73
2022/01/31 13:04:24;;;;;;;15.93;2.63;;;8.60;99.90;;;;;;5050154;28;20085;-72
2022/01/31 13:06:51;;;;;;;13.80;2.88;;;9.00;99.90;;;;;;5076934;28;20044;-72
2022/01/31 13:09:35;;;;;;;15.95;2.65;;;9.40;99.90;;;;;;5066281;28;20051;-72
2022/01/31 13:12:15;;;;;;;19.45;2.45;;;9.20;99.90;;;;;;5065309;28;20037;-72
2022/01/31 13:14:51;;;;;;;11.10;1.80;;;9.50;99.90;;;;;;5065921;28;20048;-72
2022/01/31 13:17:24;;;;;;;9.20;2.35;;;8.30;99.90;;;;;;5047744;28;20492;-72
2022/01/31 13:19:55;;;;;;;11.05;2.72;;;9.80;99.90;;;;;;5048684;28;20129;-71